Time;durP1;ratioP1;P1;durP2;ratioP2;P2;SDS_P1;SDS_P2;PMS_P1;PMS_P2;Temp;Humidity;BMP_temperature;BMP_pressure;BME280_temperature;BME280_humidity;BME280_pressure;Samples;Min_cycle;Max_cycle;Signal;HPM_P1;HPM_P2
2022/02/23 00:00:51;;;;;;;6.60;1.60;;;8.30;99.90;;;;;;5136390;27;20606;-63
2022/02/23 00:03:16;;;;;;;10.10;1.93;;;8.30;99.90;;;;;;5135080;27;20038;-62
2022/02/23 00:05:42;;;;;;;12.53;2.90;;;8.30;99.90;;;;;;5136447;27;20494;-64
2022/02/23 00:08:07;;;;;;;11.30;2.20;;;8.20;99.90;;;;;;5135906;27;20034;-64
2022/02/23 00:10:33;;;;;;;8.50;1.57;;;8.20;99.90;;;;;;5135997;27;20023;-62
2022/02/23 00:12:59;;;;;;;9.07;3.05;;;8.20;99.90;;;;;;5135272;27;20386;-67
2022/02/23 00:15:25;;;;;;;8.03;1.97;;;8.20;99.90;;;;;;5135938;27;20023;-66
2022/02/23 00:17:50;;;;;;;13.87;2.20;;;8.20;99.90;;;;;;5136039;27;20053;-67
2022/02/23 00:20:16;;;;;;;9.30;1.70;;;8.10;99.90;;;;;;5135946;27;20027;-66
2022/02/23 00:22:42;;;;;;;5.47;2.13;;;8.10;99.90;;;;;;5135889;27;20043;-66
2022/02/23 00:25:09;;;;;;;8.87;1.90;;;8.20;99.90;;;;;;5136014;27;20059;-67
2022/02/23 00:27:35;;;;;;;;;;;8.20;99.90;;;;;;5136005;27;20076;-67
2022/02/23 00:30:01;;;;;;;11.23;2.35;;;8.20;99.90;;;;;;5136780;27;19956;-67
2022/02/23 00:32:26;;;;;;;9.68;2.60;;;8.20;99.90;;;;;;5136026;27;20019;-66
2022/02/23 00:34:52;;;;;;;13.23;2.60;;;8.20;99.90;;;;;;5136293;27;20023;-66
2022/02/23 00:37:18;;;;;;;9.97;2.33;;;8.20;99.90;;;;;;5135645;27;20023;-67
2022/02/23 00:39:43;;;;;;;9.13;2.33;;;8.20;99.90;;;;;;5135333;27;20106;-67
2022/02/23 00:42:09;;;;;;;7.50;1.70;;;8.10;99.90;;;;;;5135333;27;20027;-66
2022/02/23 00:44:35;;;;;;;12.07;2.30;;;8.20;99.90;;;;;;5134847;27;20031;-66
2022/02/23 00:47:02;;;;;;;9.40;2.20;;;8.20;99.90;;;;;;5135151;27;20037;-66
2022/02/23 00:49:28;;;;;;;7.82;2.08;;;8.20;99.90;;;;;;5135269;27;20037;-66
2022/02/23 00:51:54;;;;;;;9.88;1.90;;;8.20;99.90;;;;;;5135102;27;20015;-66
2022/02/23 00:54:20;;;;;;;7.68;2.10;;;8.20;99.90;;;;;;5135014;27;20027;-66
2022/02/23 00:56:47;;;;;;;17.08;3.60;;;8.20;99.90;;;;;;5134979;27;20383;-67
2022/02/23 00:59:13;;;;;;;8.82;2.22;;;8.20;99.90;;;;;;5134983;27;20023;-67
2022/02/23 01:01:39;;;;;;;15.48;4.22;;;8.10;99.90;;;;;;5133603;27;20023;-67
2022/02/23 01:04:06;;;;;;;16.15;5.65;;;8.20;99.90;;;;;;5135267;27;20020;-67
2022/02/23 01:06:32;;;;;;;14.30;3.60;;;8.10;99.90;;;;;;5134977;27;20031;-67
2022/02/23 01:08:58;;;;;;;23.10;8.77;;;8.10;99.90;;;;;;5134926;27;20023;-67
2022/02/23 01:11:24;;;;;;;16.43;2.97;;;8.10;99.90;;;;;;5134269;27;20030;-67
2022/02/23 01:13:50;;;;;;;12.60;3.58;;;8.10;99.90;;;;;;5133715;27;20352;-67
2022/02/23 01:16:17;;;;;;;18.17;6.65;;;8.10;99.90;;;;;;5134666;27;20476;-67
2022/02/23 01:18:43;;;;;;;8.65;3.15;;;8.10;99.90;;;;;;5134728;27;20027;-67
2022/02/23 01:21:09;;;;;;;10.60;2.42;;;8.10;99.90;;;;;;5134483;27;20019;-67
2022/02/23 01:23:35;;;;;;;7.55;2.20;;;8.10;99.90;;;;;;5134527;27;20034;-67
2022/02/23 01:26:02;;;;;;;7.45;2.00;;;8.20;99.90;;;;;;5134498;27;20030;-65
2022/02/23 01:28:29;;;;;;;10.27;1.60;;;8.10;99.90;;;;;;5134742;27;20054;-66
2022/02/23 01:30:55;;;;;;;6.97;1.10;;;8.10;99.90;;;;;;5133221;27;20106;-67
2022/02/23 01:33:21;;;;;;;8.23;1.02;;;8.00;99.90;;;;;;5134398;27;20047;-66
2022/02/23 01:35:46;;;;;;;7.80;1.00;;;8.00;99.90;;;;;;5134409;27;20074;-66
2022/02/23 01:38:12;;;;;;;6.87;0.80;;;7.90;99.90;;;;;;5132995;27;20582;-67
2022/02/23 01:40:38;;;;;;;3.65;1.00;;;7.90;99.90;;;;;;5133310;27;20118;-67
2022/02/23 01:43:04;;;;;;;4.07;0.93;;;7.90;99.90;;;;;;5135313;27;20019;-66
2022/02/23 01:45:29;;;;;;;5.03;1.00;;;8.00;99.90;;;;;;5134304;27;20030;-66
2022/02/23 01:47:55;;;;;;;4.70;1.02;;;8.00;99.90;;;;;;5134377;27;20434;-66
2022/02/23 01:50:22;;;;;;;5.43;1.47;;;7.90;99.90;;;;;;5134234;27;20110;-66
2022/02/23 01:52:48;;;;;;;2.95;0.70;;;7.80;99.90;;;;;;5132718;27;20034;-66
2022/02/23 01:55:13;;;;;;;3.63;0.87;;;7.70;99.90;;;;;;5134063;27;20019;-65
2022/02/23 01:57:39;;;;;;;3.80;0.93;;;7.70;99.90;;;;;;5134051;27;20023;-66
2022/02/23 02:00:07;;;;;;;5.55;1.20;;;7.70;99.90;;;;;;5134108;27;20489;-66
2022/02/23 02:02:34;;;;;;;3.30;1.17;;;7.60;99.90;;;;;;5133921;27;20031;-66
2022/02/23 02:05:00;;;;;;;6.57;1.00;;;7.60;99.90;;;;;;5134284;27;20019;-66
2022/02/23 02:07:26;;;;;;;3.22;0.80;;;7.80;99.90;;;;;;5132960;28;20031;-66
2022/02/23 02:09:51;;;;;;;4.23;1.07;;;7.90;99.90;;;;;;5134191;27;20030;-66
2022/02/23 02:12:17;;;;;;;2.67;0.90;;;7.90;99.90;;;;;;5134082;27;20111;-65
2022/02/23 02:14:43;;;;;;;4.57;1.27;;;8.00;99.90;;;;;;5134171;27;20057;-66
2022/02/23 02:17:08;;;;;;;5.43;0.87;;;7.90;99.90;;;;;;5132958;28;20480;-65
2022/02/23 02:19:34;;;;;;;2.30;0.80;;;7.80;99.90;;;;;;5132624;28;20298;-65
2022/02/23 02:22:06;;;;;;;3.27;0.93;;;7.80;99.90;;;;;;5134014;27;20046;-65
2022/02/23 02:24:34;;;;;;;3.88;1.73;;;7.70;99.90;;;;;;5132743;28;20019;-65
2022/02/23 02:27:03;;;;;;;4.47;1.02;;;7.80;99.90;;;;;;5133507;28;20058;-66
2022/02/23 02:29:30;;;;;;;4.72;1.00;;;7.80;99.90;;;;;;5134256;27;20062;-66
2022/02/23 02:31:55;;;;;;;4.70;0.93;;;7.80;99.90;;;;;;5134217;27;20020;-66
2022/02/23 02:34:22;;;;;;;5.43;1.00;;;7.80;99.90;;;;;;5134144;27;20084;-66
2022/02/23 02:36:48;;;;;;;;;;;7.70;99.90;;;;;;5134942;27;20479;-66
2022/02/23 02:39:15;;;;;;;4.55;1.00;;;7.70;99.90;;;;;;5133952;27;19903;-66
2022/02/23 02:41:41;;;;;;;5.40;0.88;;;7.70;99.90;;;;;;5133701;27;20031;-66
2022/02/23 02:44:07;;;;;;;4.30;0.90;;;7.90;99.90;;;;;;5133592;27;20118;-66
2022/02/23 02:46:33;;;;;;;5.63;1.30;;;8.10;99.90;;;;;;5133657;27;20062;-66
2022/02/23 02:48:59;;;;;;;2.92;1.00;;;8.00;99.90;;;;;;5132348;28;20024;-66
2022/02/23 02:51:24;;;;;;;3.97;0.82;;;7.90;99.90;;;;;;5133884;27;20034;-67
2022/02/23 02:53:50;;;;;;;2.10;0.87;;;7.90;99.90;;;;;;5132264;28;20030;-66
2022/02/23 02:56:16;;;;;;;4.50;1.10;;;7.90;99.90;;;;;;5133740;27;20277;-67
2022/02/23 02:58:42;;;;;;;3.35;1.13;;;8.00;99.90;;;;;;5133604;27;20019;-67
2022/02/23 03:01:09;;;;;;;4.97;1.02;;;8.00;99.90;;;;;;5132459;28;20037;-67
2022/02/23 03:03:35;;;;;;;5.05;0.93;;;7.90;99.90;;;;;;5132525;28;20110;-67
2022/02/23 03:06:00;;;;;;;5.90;1.00;;;7.70;99.90;;;;;;5134262;27;20490;-67
2022/02/23 03:08:28;;;;;;;7.50;1.43;;;7.60;99.90;;;;;;5135091;27;20039;-66
2022/02/23 03:10:54;;;;;;;4.70;1.20;;;7.70;99.90;;;;;;5137223;27;20055;-66
2022/02/23 03:13:19;;;;;;;5.37;0.97;;;7.60;99.90;;;;;;5138354;27;20046;-66
2022/02/23 03:15:46;;;;;;;9.33;1.40;;;7.60;99.90;;;;;;5138214;27;20023;-66
2022/02/23 03:18:12;;;;;;;4.72;1.23;;;7.60;99.90;;;;;;5137999;27;20026;-66
2022/02/23 03:20:38;;;;;;;7.88;1.10;;;7.60;99.90;;;;;;5137448;27;20142;-67
2022/02/23 03:23:04;;;;;;;3.37;1.00;;;7.60;99.90;;;;;;5137573;27;20055;-66
2022/02/23 03:25:29;;;;;;;3.80;1.00;;;7.80;99.90;;;;;;5136919;27;20728;-66
2022/02/23 03:27:55;;;;;;;8.43;1.73;;;7.80;99.90;;;;;;5137430;27;20042;-66
2022/02/23 03:30:20;;;;;;;7.23;1.30;;;7.70;99.90;;;;;;5138773;27;20035;-66
2022/02/23 03:32:46;;;;;;;8.23;1.23;;;7.80;99.90;;;;;;5141806;27;20028;-66
2022/02/23 03:35:12;;;;;;;7.00;1.63;;;7.70;99.90;;;;;;5139822;27;20023;-66
2022/02/23 03:37:38;;;;;;;6.97;1.60;;;7.60;99.90;;;;;;5137026;27;20502;-66
2022/02/23 03:40:04;;;;;;;5.97;1.58;;;7.60;99.90;;;;;;5135478;27;20041;-65
2022/02/23 03:42:30;;;;;;;5.93;1.42;;;7.50;99.90;;;;;;5136582;27;20037;-65
2022/02/23 03:44:55;;;;;;;7.07;1.27;;;7.50;99.90;;;;;;5136558;27;20102;-65
2022/02/23 03:47:21;;;;;;;4.53;1.43;;;7.50;99.90;;;;;;5136433;27;20102;-65
2022/02/23 03:49:47;;;;;;;6.60;1.43;;;7.40;99.90;;;;;;5136408;27;20019;-67
2022/02/23 03:52:12;;;;;;;6.20;1.63;;;7.40;99.90;;;;;;5136246;27;20027;-66
2022/02/23 03:54:38;;;;;;;7.47;2.00;;;7.40;99.90;;;;;;5136355;27;20019;-66
2022/02/23 03:57:04;;;;;;;11.47;4.03;;;7.50;99.90;;;;;;5136439;27;20019;-66
2022/02/23 03:59:30;;;;;;;5.18;1.95;;;7.50;99.90;;;;;;5136183;27;20428;-66
2022/02/23 04:01:56;;;;;;;4.32;1.65;;;7.50;99.90;;;;;;5136677;27;20027;-67
2022/02/23 04:04:22;;;;;;;4.40;1.63;;;7.40;99.90;;;;;;5136095;27;20091;-67
2022/02/23 04:06:49;;;;;;;7.18;1.90;;;7.40;99.90;;;;;;5136359;27;20115;-67
2022/02/23 04:09:16;;;;;;;8.63;1.83;;;7.40;99.90;;;;;;5134707;27;20529;-66
2022/02/23 04:11:41;;;;;;;;;;;7.40;99.90;;;;;;5136361;27;20106;-65
2022/02/23 04:14:08;;;;;;;4.72;2.10;;;7.40;99.90;;;;;;5136478;27;19946;-66
2022/02/23 04:16:34;;;;;;;4.30;1.73;;;7.50;99.90;;;;;;5135901;27;20106;-66
2022/02/23 04:19:00;;;;;;;;;;;7.50;99.90;;;;;;5136408;27;20560;-65
2022/02/23 04:21:29;;;;;;;8.77;2.97;;;7.50;99.90;;;;;;5135519;27;19907;-66
2022/02/23 04:23:55;;;;;;;5.70;2.00;;;7.50;99.90;;;;;;5134540;27;20051;-65
2022/02/23 04:26:21;;;;;;;8.13;2.30;;;7.50;99.90;;;;;;5135708;27;20031;-66
2022/02/23 04:28:47;;;;;;;7.53;2.20;;;7.50;99.90;;;;;;5135983;27;20076;-66
2022/02/23 04:31:15;;;;;;;12.63;2.53;;;7.60;99.90;;;;;;5134404;27;20023;-66
2022/02/23 04:33:41;;;;;;;6.72;2.25;;;7.60;99.90;;;;;;5134165;27;20065;-66
2022/02/23 04:36:09;;;;;;;10.68;2.25;;;7.60;99.90;;;;;;5136246;27;20051;-66
2022/02/23 04:38:37;;;;;;;6.00;1.90;;;7.50;99.90;;;;;;5135635;27;20083;-66
2022/02/23 04:41:04;;;;;;;11.13;2.53;;;7.50;99.90;;;;;;5135332;27;20080;-67
2022/02/23 04:43:33;;;;;;;;;;;7.40;99.90;;;;;;5135801;27;20068;-67
2022/02/23 04:46:00;;;;;;;7.00;2.33;;;7.40;99.90;;;;;;5135374;27;19903;-67
2022/02/23 04:48:26;;;;;;;9.52;2.72;;;7.30;99.90;;;;;;5135492;27;20019;-67
2022/02/23 04:50:51;;;;;;;11.30;2.70;;;7.30;99.90;;;;;;5134092;27;20030;-67
2022/02/23 04:53:17;;;;;;;10.03;2.80;;;7.30;99.90;;;;;;5135420;27;20019;-67
2022/02/23 04:55:43;;;;;;;11.33;2.30;;;7.30;99.90;;;;;;5136040;27;20310;-66
2022/02/23 04:58:08;;;;;;;8.93;2.63;;;7.30;99.90;;;;;;5135654;27;20038;-66
2022/02/23 05:00:38;;;;;;;10.07;3.10;;;7.40;99.90;;;;;;5135851;27;20023;-66
2022/02/23 05:03:04;;;;;;;8.18;2.65;;;7.30;99.90;;;;;;5135338;27;20420;-66
2022/02/23 05:05:30;;;;;;;;;;;7.30;99.90;;;;;;5135402;27;20080;-66
2022/02/23 05:07:56;;;;;;;10.02;3.25;;;7.30;99.90;;;;;;5134933;27;19907;-66
2022/02/23 05:10:21;;;;;;;9.37;2.70;;;7.20;99.90;;;;;;5135016;27;20027;-66
2022/02/23 05:12:47;;;;;;;8.17;2.60;;;7.20;99.90;;;;;;5134956;27;20019;-66
2022/02/23 05:15:12;;;;;;;7.90;2.80;;;7.50;99.90;;;;;;5134959;27;20234;-65
2022/02/23 05:17:41;;;;;;;7.40;2.53;;;7.50;99.90;;;;;;5134553;27;20030;-65
2022/02/23 05:20:08;;;;;;;8.35;2.70;;;7.50;99.90;;;;;;5134986;27;20019;-66
2022/02/23 05:22:34;;;;;;;;;;;7.40;99.90;;;;;;5135050;27;20080;-66
2022/02/23 05:25:00;;;;;;;11.38;2.67;;;7.30;99.90;;;;;;5133293;27;19903;-66
2022/02/23 05:27:25;;;;;;;9.38;3.80;;;7.20;99.90;;;;;;5134924;27;20049;-65
2022/02/23 05:29:51;;;;;;;9.97;3.27;;;7.10;99.90;;;;;;5134554;27;20091;-66
2022/02/23 05:32:16;;;;;;;10.07;3.23;;;7.10;99.90;;;;;;5134416;27;20019;-66
2022/02/23 05:34:42;;;;;;;9.30;3.37;;;7.00;99.90;;;;;;5133099;27;20424;-67
2022/02/23 05:37:08;;;;;;;6.03;3.27;;;7.00;99.90;;;;;;5134973;27;20019;-67
2022/02/23 05:39:33;;;;;;;8.43;3.13;;;7.00;99.90;;;;;;5134229;27;20030;-66
2022/02/23 05:41:59;;;;;;;12.13;3.57;;;7.00;99.90;;;;;;5132228;27;20483;-66
2022/02/23 05:44:25;;;;;;;8.75;3.40;;;7.00;99.90;;;;;;5133349;27;20019;-67
2022/02/23 05:46:50;;;;;;;10.00;3.53;;;6.90;99.90;;;;;;5134649;27;20042;-67
2022/02/23 05:49:19;;;;;;;8.87;3.33;;;6.90;99.90;;;;;;5134274;27;20023;-67
2022/02/23 05:51:48;;;;;;;11.18;3.50;;;6.90;99.90;;;;;;5134396;27;20084;-67
2022/02/23 05:54:15;;;;;;;10.02;3.17;;;6.90;99.90;;;;;;5132895;27;20039;-67
2022/02/23 05:56:41;;;;;;;8.90;3.53;;;6.90;99.90;;;;;;5132807;27;20372;-67
2022/02/23 05:59:08;;;;;;;12.43;3.85;;;6.80;99.90;;;;;;5134043;27;20056;-65
2022/02/23 06:01:34;;;;;;;13.40;3.80;;;6.80;99.90;;;;;;5134119;27;20056;-67
2022/02/23 06:04:00;;;;;;;10.00;3.85;;;6.80;99.90;;;;;;5134075;27;20022;-67
2022/02/23 06:06:26;;;;;;;9.23;4.43;;;6.80;99.90;;;;;;5134537;27;20023;-67
2022/02/23 06:08:52;;;;;;;16.52;4.10;;;6.80;99.90;;;;;;5134561;27;20024;-66
2022/02/23 06:11:18;;;;;;;11.15;4.57;;;6.80;99.90;;;;;;5133907;27;20368;-66
2022/02/23 06:13:50;;;;;;;12.17;3.93;;;6.80;99.90;;;;;;5132741;28;20035;-66
2022/02/23 06:16:20;;;;;;;14.18;4.22;;;6.80;99.90;;;;;;5134374;27;20024;-66
2022/02/23 06:18:46;;;;;;;11.55;5.00;;;6.80;99.90;;;;;;5133010;28;20122;-66
2022/02/23 06:21:12;;;;;;;11.57;4.53;;;6.80;99.90;;;;;;5134296;27;20055;-66
2022/02/23 06:23:37;;;;;;;9.88;4.10;;;6.90;99.90;;;;;;5132861;27;20019;-68
2022/02/23 06:26:05;;;;;;;7.73;4.27;;;6.90;99.90;;;;;;5133677;27;20110;-67
2022/02/23 06:28:31;;;;;;;10.23;4.55;;;6.90;99.90;;;;;;5132569;28;20096;-67
2022/02/23 06:30:57;;;;;;;18.13;8.07;;;6.90;99.90;;;;;;5133883;27;20015;-67
2022/02/23 06:33:25;;;;;;;13.27;5.23;;;6.90;99.90;;;;;;5133703;27;20027;-66
2022/02/23 06:35:51;;;;;;;12.23;4.70;;;7.00;99.90;;;;;;5132516;28;20122;-66
2022/02/23 06:38:18;;;;;;;10.00;4.35;;;7.00;99.90;;;;;;5133114;28;20050;-66
2022/02/23 06:40:45;;;;;;;12.90;5.05;;;7.00;99.90;;;;;;5133625;27;20031;-66
2022/02/23 06:43:14;;;;;;;10.68;4.50;;;7.00;99.90;;;;;;5134435;27;20118;-66
2022/02/23 06:45:40;;;;;;;9.32;4.38;;;7.00;99.90;;;;;;5138075;27;20019;-66
2022/02/23 06:48:06;;;;;;;9.82;3.97;;;7.00;99.90;;;;;;5136372;27;20030;-66
2022/02/23 06:50:32;;;;;;;11.27;4.82;;;7.00;99.90;;;;;;5136316;27;20027;-67
2022/02/23 06:52:59;;;;;;;11.63;4.77;;;7.00;99.90;;;;;;5137679;27;20468;-67
2022/02/23 06:55:25;;;;;;;13.70;4.75;;;7.00;99.90;;;;;;5138034;27;20015;-66
2022/02/23 06:57:50;;;;;;;12.40;5.32;;;7.10;99.90;;;;;;5137738;27;20031;-66
2022/02/23 07:00:16;;;;;;;12.30;4.90;;;7.10;99.90;;;;;;5137295;27;20034;-66
2022/02/23 07:02:42;;;;;;;12.23;4.88;;;7.20;99.90;;;;;;5137306;27;20102;-67
2022/02/23 07:05:09;;;;;;;8.63;4.10;;;7.20;99.90;;;;;;5137115;27;20498;-66
2022/02/23 07:07:34;;;;;;;15.02;4.68;;;7.20;99.90;;;;;;5137183;27;20106;-67
2022/02/23 07:10:00;;;;;;;9.30;4.80;;;7.20;99.90;;;;;;5137849;27;20200;-67
2022/02/23 07:12:26;;;;;;;8.40;4.20;;;7.30;99.90;;;;;;5136901;27;20257;-67
2022/02/23 07:14:52;;;;;;;7.90;3.72;;;7.30;99.90;;;;;;5136931;27;20015;-66
2022/02/23 07:17:17;;;;;;;8.17;3.73;;;7.40;99.90;;;;;;5136883;27;20027;-67
2022/02/23 07:19:43;;;;;;;13.37;3.73;;;7.40;99.90;;;;;;5136941;27;20019;-66
2022/02/23 07:22:08;;;;;;;10.73;4.30;;;7.50;99.90;;;;;;5135834;27;20020;-67
2022/02/23 07:24:35;;;;;;;8.03;4.00;;;7.50;99.90;;;;;;5137499;27;20019;-66
2022/02/23 07:27:01;;;;;;;;;;;7.60;99.90;;;;;;5119936;27;20029;-67
2022/02/23 07:29:29;;;;;;;12.25;4.85;;;7.70;99.90;;;;;;5136821;27;20005;-67
2022/02/23 07:31:55;;;;;;;11.10;3.90;;;7.60;99.90;;;;;;5136814;27;20094;-67
2022/02/23 07:34:21;;;;;;;9.43;3.70;;;7.70;99.90;;;;;;5137201;27;20107;-67
2022/02/23 07:36:46;;;;;;;12.27;4.37;;;7.70;99.90;;;;;;5137152;27;20015;-66
2022/02/23 07:39:12;;;;;;;8.40;3.30;;;8.00;99.90;;;;;;5136722;27;20019;-66
2022/02/23 07:41:38;;;;;;;7.28;3.00;;;7.90;99.90;;;;;;5135303;27;20046;-66
2022/02/23 07:44:04;;;;;;;6.07;3.60;;;8.00;99.90;;;;;;5135125;27;20035;-66
2022/02/23 07:46:29;;;;;;;7.00;3.38;;;8.00;99.90;;;;;;5135241;27;20027;-67
2022/02/23 07:49:00;;;;;;;10.43;3.97;;;8.00;99.90;;;;;;5135505;27;20050;-66
2022/02/23 07:51:27;;;;;;;6.63;3.28;;;8.20;99.90;;;;;;5135029;27;20019;-67
2022/02/23 07:53:54;;;;;;;;;;;8.10;99.90;;;;;;5136446;27;20448;-66
2022/02/23 07:56:21;;;;;;;;;;;8.20;99.90;;;;;;5136577;27;19907;-66
2022/02/23 07:58:47;;;;;;;10.90;3.20;;;8.20;99.90;;;;;;5136243;27;19903;-66
2022/02/23 08:01:33;;;;;;;6.63;2.95;;;8.20;99.90;;;;;;5136100;27;20019;-68
2022/02/23 08:03:59;;;;;;;7.68;2.83;;;8.20;99.90;;;;;;5135925;27;20076;-66
2022/02/23 08:06:24;;;;;;;6.22;3.13;;;8.20;99.90;;;;;;5136991;27;20027;-67
2022/02/23 08:08:53;;;;;;;5.47;2.97;;;8.10;99.90;;;;;;5134778;27;20039;-65
2022/02/23 08:11:19;;;;;;;9.75;3.28;;;8.10;99.90;;;;;;5135632;27;20261;-66
2022/02/23 08:13:45;;;;;;;7.47;3.40;;;8.10;99.90;;;;;;5134467;27;20038;-66
2022/02/23 08:21:51;;;;;;;7.75;3.17;;;8.00;99.90;;;;;;5136406;27;20137;-66
2022/02/23 08:24:17;;;;;;;8.23;3.08;;;8.00;99.90;;;;;;5135968;27;20023;-66
2022/02/23 08:26:43;;;;;;;6.28;2.88;;;8.00;99.90;;;;;;5135978;27;20026;-67
2022/02/23 08:29:09;;;;;;;8.60;3.60;;;7.90;99.90;;;;;;5135904;27;20120;-66
2022/02/23 08:31:36;;;;;;;9.47;3.50;;;7.90;99.90;;;;;;5135460;27;20023;-66
2022/02/23 08:34:02;;;;;;;9.70;4.13;;;7.90;99.90;;;;;;5135332;27;20023;-67
2022/02/23 08:36:28;;;;;;;8.40;3.50;;;8.00;99.90;;;;;;5135325;27;20038;-67
2022/02/23 08:38:53;;;;;;;6.53;3.50;;;8.10;99.90;;;;;;5135129;27;20467;-67
2022/02/23 08:41:20;;;;;;;5.67;3.43;;;8.20;99.90;;;;;;5135926;27;20027;-67
2022/02/23 08:43:45;;;;;;;9.45;3.65;;;8.30;99.90;;;;;;5135765;27;20023;-67
2022/02/23 08:46:11;;;;;;;8.37;3.60;;;8.30;99.90;;;;;;5135409;27;20051;-67
2022/02/23 08:48:37;;;;;;;9.67;3.70;;;8.30;99.90;;;;;;5135617;27;20074;-67
2022/02/23 08:51:02;;;;;;;8.60;3.80;;;8.40;99.90;;;;;;5136057;27;20261;-67
2022/02/23 08:53:29;;;;;;;7.30;3.47;;;8.30;99.90;;;;;;5134033;27;20102;-67
2022/02/23 08:55:55;;;;;;;8.43;3.40;;;8.30;99.90;;;;;;5135479;27;20027;-67
2022/02/23 08:58:21;;;;;;;8.38;3.50;;;8.30;99.90;;;;;;5135273;27;20118;-67
2022/02/23 09:00:48;;;;;;;10.32;3.92;;;8.30;99.90;;;;;;5134887;27;20485;-67
2022/02/23 09:03:14;;;;;;;8.13;3.15;;;8.40;99.90;;;;;;5135258;27;20034;-67
2022/02/23 09:05:41;;;;;;;5.75;3.17;;;8.40;99.90;;;;;;5134610;27;20422;-67
2022/02/23 09:08:06;;;;;;;10.18;3.50;;;8.50;99.90;;;;;;5133671;27;20087;-67
2022/02/23 09:10:32;;;;;;;6.97;3.10;;;8.60;99.90;;;;;;5135275;27;20049;-67
2022/02/23 09:12:58;;;;;;;6.93;2.83;;;8.70;99.90;;;;;;5134858;27;20348;-67
2022/02/23 09:15:23;;;;;;;8.93;2.72;;;8.70;99.90;;;;;;5134605;27;20024;-67
2022/02/23 09:17:49;;;;;;;6.67;2.03;;;8.70;99.90;;;;;;5135466;27;20436;-67
2022/02/23 09:20:15;;;;;;;7.73;2.50;;;8.80;99.90;;;;;;5134823;27;20296;-67
2022/02/23 09:22:40;;;;;;;7.57;2.60;;;8.90;99.90;;;;;;5133313;27;20027;-67
2022/02/23 09:25:08;;;;;;;12.07;2.88;;;9.00;99.90;;;;;;5133280;27;20081;-67
2022/02/23 09:27:37;;;;;;;10.95;2.92;;;9.00;99.90;;;;;;5133193;27;20444;-67
2022/02/23 09:30:04;;;;;;;11.00;2.78;;;9.10;99.90;;;;;;5133759;27;20027;-67
2022/02/23 09:32:30;;;;;;;8.75;2.28;;;9.40;99.90;;;;;;5133267;27;20023;-66
2022/02/23 09:34:55;;;;;;;4.83;1.97;;;10.60;99.90;;;;;;5134568;27;20072;-67
2022/02/23 09:37:21;;;;;;;8.80;2.30;;;12.10;99.90;;;;;;5133241;27;20103;-66
2022/02/23 09:39:48;;;;;;;9.77;2.47;;;13.30;99.90;;;;;;5134788;27;20026;-66
2022/02/23 09:42:14;;;;;;;8.10;2.60;;;14.10;99.90;;;;;;5134541;27;20019;-65
2022/02/23 09:44:41;;;;;;;4.85;1.80;;;14.60;99.90;;;;;;5134360;27;20463;-65
2022/02/23 09:47:08;;;;;;;8.07;2.10;;;14.80;99.90;;;;;;5133426;27;20551;-66
2022/02/23 09:49:35;;;;;;;8.55;2.50;;;14.90;99.90;;;;;;5133847;27;20035;-66
2022/02/23 09:52:01;;;;;;;10.35;2.58;;;15.20;99.90;;;;;;5134731;27;20023;-70
2022/02/23 09:54:27;;;;;;;7.50;2.30;;;15.00;99.90;;;;;;5133173;27;20110;-71
2022/02/23 09:56:53;;;;;;;5.20;1.67;;;15.50;99.90;;;;;;5132771;27;20120;-74
2022/02/23 09:59:18;;;;;;;4.43;2.17;;;17.00;98.80;;;;;;5132938;27;20026;-69
2022/02/23 10:01:45;;;;;;;6.78;2.42;;;18.60;94.00;;;;;;5135207;27;20531;-67
2022/02/23 10:04:13;;;;;;;5.30;2.13;;;20.60;91.60;;;;;;5134008;27;20023;-71
2022/02/23 10:06:39;;;;;;;5.07;2.00;;;21.60;81.80;;;;;;5134300;27;20022;-72
2022/02/23 10:09:11;;;;;;;7.28;1.90;;;20.70;81.40;;;;;;5132577;28;20026;-72
2022/02/23 10:11:38;;;;;;;6.68;2.28;;;20.00;84.00;;;;;;5134085;27;20056;-72
2022/02/23 10:14:05;;;;;;;9.18;4.72;;;21.50;80.90;;;;;;5133664;28;20087;-71
2022/02/23 10:16:36;;;;;;;8.23;2.47;;;23.40;74.40;;;;;;5135818;27;20068;-70
2022/02/23 10:19:22;;;;;;;7.13;2.13;;;24.60;67.80;;;;;;5138314;27;20075;-71
2022/02/23 10:21:59;;;;;;;6.60;2.07;;;24.60;65.10;;;;;;5139253;27;20023;-69
2022/02/23 10:24:37;;;;;;;5.32;1.85;;;24.60;65.40;;;;;;5138817;27;20023;-70
2022/02/23 10:27:08;;;;;;;6.95;2.42;;;26.20;62.40;;;;;;5139358;27;20034;-67
2022/02/23 10:29:38;;;;;;;6.00;2.30;;;26.70;61.20;;;;;;5138448;27;20126;-68
2022/02/23 10:32:09;;;;;;;5.38;2.20;;;27.40;58.60;;;;;;5138086;27;20011;-68
2022/02/23 10:34:46;;;;;;;3.38;1.50;;;28.10;56.80;;;;;;5137812;27;20415;-69
2022/02/23 10:37:15;;;;;;;5.97;2.20;;;28.80;55.40;;;;;;5136208;27;20042;-69
2022/02/23 10:39:43;;;;;;;4.72;1.88;;;29.60;54.60;;;;;;5138059;27;20023;-69
2022/02/23 10:42:14;;;;;;;6.30;2.00;;;29.60;52.40;;;;;;5137648;27;20023;-69
2022/02/23 10:44:42;;;;;;;7.75;2.50;;;26.90;53.30;;;;;;5136348;27;20019;-69
2022/02/23 10:47:25;;;;;;;4.38;2.00;;;25.40;56.90;;;;;;5137757;27;20034;-69
2022/02/23 10:49:58;;;;;;;7.55;1.95;;;25.60;57.70;;;;;;5137564;27;20391;-69
2022/02/23 10:52:23;;;;;;;6.47;2.08;;;25.20;57.00;;;;;;5137186;27;20015;-70
2022/02/23 10:54:49;;;;;;;6.43;2.20;;;25.70;56.10;;;;;;5135963;27;20071;-69
2022/02/23 10:57:19;;;;;;;7.72;2.00;;;24.50;58.20;;;;;;5137122;27;20068;-69
2022/02/23 10:59:45;;;;;;;7.00;2.25;;;24.10;57.70;;;;;;5137292;27;20041;-70
2022/02/23 11:02:11;;;;;;;6.40;2.22;;;23.50;59.50;;;;;;5136922;27;20514;-68
2022/02/23 11:04:37;;;;;;;5.55;2.08;;;23.80;59.50;;;;;;5135873;27;20061;-69
2022/02/23 11:07:03;;;;;;;5.47;1.90;;;25.50;58.20;;;;;;5137374;27;20498;-70
2022/02/23 11:09:32;;;;;;;5.25;2.28;;;25.40;55.40;;;;;;5135817;27;20031;-70
2022/02/23 11:12:00;;;;;;;11.10;2.72;;;23.40;58.10;;;;;;5136783;27;20023;-70
2022/02/23 11:14:27;;;;;;;5.32;2.03;;;21.80;61.00;;;;;;5136906;27;20126;-71
2022/02/23 11:16:54;;;;;;;8.25;2.17;;;19.90;65.10;;;;;;5135683;27;20034;-69
2022/02/23 11:19:22;;;;;;;4.97;2.08;;;19.20;70.80;;;;;;5137049;27;20038;-69
2022/02/23 11:21:48;;;;;;;9.60;2.72;;;18.10;72.30;;;;;;5137231;27;20094;-70
2022/02/23 11:24:14;;;;;;;6.57;1.90;;;16.70;77.40;;;;;;5136880;27;20102;-70
2022/02/23 11:26:42;;;;;;;5.22;1.63;;;15.70;81.90;;;;;;5136879;27;20126;-71
2022/02/23 11:29:33;;;;;;;8.38;2.25;;;14.80;86.80;;;;;;5137214;27;20023;-68
2022/02/23 11:32:03;;;;;;;7.47;2.17;;;14.00;90.90;;;;;;5136104;27;20337;-69
2022/02/23 11:34:29;;;;;;;7.93;2.25;;;13.50;93.40;;;;;;5137032;27;20011;-69
2022/02/23 11:36:55;;;;;;;8.07;1.77;;;13.30;94.60;;;;;;5136777;27;20026;-70
2022/02/23 11:39:37;;;;;;;8.45;1.90;;;13.20;95.80;;;;;;5135712;27;20072;-69
2022/02/23 11:42:07;;;;;;;5.82;1.60;;;13.20;97.10;;;;;;5136724;27;20456;-69
2022/02/23 11:44:42;;;;;;;5.20;1.60;;;13.30;98.00;;;;;;5134912;27;20375;-69
2022/02/23 11:47:12;;;;;;;8.98;2.00;;;13.50;98.50;;;;;;5136894;27;20102;-70
2022/02/23 11:49:48;;;;;;;6.88;1.38;;;13.50;98.20;;;;;;5136771;27;20488;-69
2022/02/23 11:52:34;;;;;;;6.32;1.70;;;13.40;95.60;;;;;;5136568;27;20019;-69
2022/02/23 11:55:22;;;;;;;11.20;1.75;;;13.40;95.50;;;;;;5137010;27;20119;-69
2022/02/23 11:58:06;;;;;;;6.65;1.63;;;13.20;96.20;;;;;;5136924;27;20106;-69
2022/02/23 12:00:44;;;;;;;9.40;1.45;;;13.10;96.20;;;;;;5136620;27;20076;-70
2022/02/23 12:03:11;;;;;;;7.63;1.52;;;12.90;95.60;;;;;;5136064;27;20033;-70
2022/02/23 12:05:43;;;;;;;8.82;1.67;;;12.70;96.40;;;;;;5136623;27;20072;-70
2022/02/23 12:08:33;;;;;;;10.88;2.03;;;12.70;97.30;;;;;;5136311;27;20055;-69
2022/02/23 12:13:58;;;;;;;7.90;1.52;;;12.50;97.10;;;;;;5135734;27;20514;-66
2022/02/23 12:16:28;;;;;;;6.82;1.95;;;12.40;97.20;;;;;;5136072;27;20026;-70
2022/02/23 12:18:58;;;;;;;11.02;1.67;;;12.40;96.80;;;;;;5134686;27;20519;-70
2022/02/23 12:21:42;;;;;;;4.85;1.30;;;12.50;96.80;;;;;;5136004;27;20023;-70
2022/02/23 12:24:13;;;;;;;8.23;1.80;;;12.40;96.00;;;;;;5135749;27;20034;-70
2022/02/23 12:26:39;;;;;;;7.43;1.65;;;12.40;96.30;;;;;;5136322;27;20046;-70
2022/02/23 12:29:09;;;;;;;11.83;1.50;;;12.40;96.60;;;;;;5135948;27;20055;-69
2022/02/23 12:31:35;;;;;;;6.63;1.30;;;12.60;96.20;;;;;;5135919;27;20256;-70
2022/02/23 12:34:03;;;;;;;;;;;12.50;94.90;;;;;;5136816;27;20443;-70
2022/02/23 12:36:34;;;;;;;4.55;1.10;;;12.50;95.00;;;;;;5134314;27;19904;-69
2022/02/23 12:39:01;;;;;;;4.82;1.10;;;12.60;94.70;;;;;;5136287;27;20072;-70
2022/02/23 12:41:32;;;;;;;8.75;1.58;;;12.60;94.70;;;;;;5134531;27;20053;-69
2022/02/23 12:44:05;;;;;;;8.40;2.00;;;12.70;95.10;;;;;;5134491;27;20030;-69
2022/02/23 12:46:34;;;;;;;6.32;1.30;;;12.80;95.20;;;;;;5134612;27;20690;-71
2022/02/23 12:49:01;;;;;;;8.70;1.50;;;12.80;94.50;;;;;;5135761;27;20044;-70
2022/02/23 12:51:31;;;;;;;5.53;1.63;;;12.90;93.50;;;;;;5135528;27;20072;-70
2022/02/23 12:54:03;;;;;;;7.65;1.45;;;12.90;93.40;;;;;;5135324;27;20038;-70
2022/02/23 12:56:43;;;;;;;6.82;1.60;;;13.00;94.10;;;;;;5134023;27;20099;-70
2022/02/23 12:59:30;;;;;;;5.88;1.40;;;13.20;93.60;;;;;;5135167;27;20089;-69
2022/02/23 13:02:02;;;;;;;4.75;1.83;;;13.20;92.50;;;;;;5133541;27;20027;-70
2022/02/23 13:04:41;;;;;;;4.22;1.20;;;13.20;91.80;;;;;;5135105;27;20023;-70